createdAt,value
2019-03-23T00:02:12.054Z,6.23
2019-03-23T00:04:40.495Z,4.33
2019-03-23T00:07:08.859Z,6.40
2019-03-23T00:09:37.246Z,3.20
2019-03-23T00:12:05.638Z,7.90
2019-03-23T00:14:34.122Z,7.42
2019-03-23T00:17:02.480Z,6.42
2019-03-23T00:19:30.876Z,7.85
2019-03-23T00:21:59.263Z,9.13
2019-03-23T00:24:27.658Z,9.38
2019-03-23T00:26:56.020Z,9.05
2019-03-23T00:29:24.396Z,6.80
2019-03-23T00:31:52.845Z,12.43
2019-03-23T00:34:21.225Z,11.60
2019-03-23T00:36:49.577Z,16.85
2019-03-23T00:39:17.948Z,17.50
2019-03-23T00:41:46.311Z,16.23
2019-03-23T00:44:14.697Z,17.73
2019-03-23T00:46:43.116Z,18.52
2019-03-23T00:49:11.563Z,22.10
2019-03-23T00:51:39.948Z,23.90
2019-03-23T00:54:08.313Z,24.90
2019-03-23T00:56:36.678Z,22.77
2019-03-23T00:59:05.242Z,25.57
2019-03-23T01:01:33.627Z,28.55
2019-03-23T01:04:02.056Z,24.07
2019-03-23T01:06:30.466Z,30.00
2019-03-23T01:08:58.828Z,30.12
2019-03-23T01:11:27.958Z,31.65
2019-03-23T01:13:56.277Z,35.40
2019-03-23T01:16:24.660Z,33.50
2019-03-23T01:18:53.016Z,36.10
2019-03-23T01:21:21.394Z,41.00
2019-03-23T01:23:49.757Z,45.23
2019-03-23T01:26:18.163Z,34.48
2019-03-23T01:28:46.529Z,41.30
2019-03-23T01:31:14.925Z,46.50
2019-03-23T01:33:43.302Z,46.92
2019-03-23T01:36:11.702Z,59.90
2019-03-23T01:38:40.245Z,52.98
2019-03-23T01:41:08.533Z,50.37
2019-03-23T01:43:36.838Z,52.27
2019-03-23T01:46:05.221Z,51.97
2019-03-23T01:48:33.609Z,53.13
2019-03-23T01:51:01.974Z,56.35
2019-03-23T01:53:30.286Z,61.80
2019-03-23T01:55:58.589Z,67.97
2019-03-23T01:58:27.070Z,66.30
2019-03-23T02:00:55.403Z,66.07
2019-03-23T02:03:23.806Z,65.77
2019-03-23T02:05:52.212Z,71.37
2019-03-23T02:08:21.053Z,68.78
2019-03-23T02:10:49.416Z,63.02
2019-03-23T02:13:17.797Z,80.20
2019-03-23T02:15:46.091Z,75.47
2019-03-23T02:18:14.489Z,82.27
2019-03-23T02:20:42.875Z,78.97
2019-03-23T02:23:11.179Z,80.53
2019-03-23T02:25:39.577Z,67.70
2019-03-23T02:28:07.949Z,84.97
2019-03-23T02:30:36.342Z,81.75
2019-03-23T02:33:04.779Z,83.25
2019-03-23T02:35:33.173Z,74.72
2019-03-23T02:38:01.558Z,84.17
2019-03-23T02:40:29.966Z,79.33
2019-03-23T02:42:58.343Z,69.92
2019-03-23T02:45:26.729Z,82.50
2019-03-23T02:47:56.029Z,76.00
2019-03-23T02:50:24.417Z,81.95
2019-03-23T02:52:52.799Z,75.42
2019-03-23T02:55:21.179Z,70.20
2019-03-23T02:57:49.568Z,68.83
2019-03-23T03:00:17.995Z,60.53
2019-03-23T03:02:46.424Z,61.25
2019-03-23T03:05:14.978Z,81.92
2019-03-23T03:07:44.057Z,74.12
2019-03-23T03:10:14.835Z,65.12
2019-03-23T03:12:43.241Z,68.60
2019-03-23T03:15:11.658Z,70.72
2019-03-23T03:17:40.055Z,65.87
2019-03-23T03:20:09.316Z,61.10
2019-03-23T03:22:37.681Z,56.50
2019-03-23T03:25:07.015Z,61.00
2019-03-23T03:27:35.909Z,59.13
2019-03-23T03:30:05.862Z,64.10
2019-03-23T03:32:34.240Z,62.55
2019-03-23T03:35:02.637Z,69.62
2019-03-23T03:37:31.007Z,58.97
2019-03-23T03:39:59.385Z,58.07
2019-03-23T03:42:27.838Z,54.03
2019-03-23T03:44:56.692Z,50.77
2019-03-23T03:47:25.103Z,54.05
2019-03-23T03:49:54.014Z,52.76
2019-03-23T03:52:22.387Z,49.15
2019-03-23T03:54:50.770Z,47.93
2019-03-23T03:57:19.084Z,44.50
2019-03-23T03:59:47.454Z,44.10
2019-03-23T04:02:15.891Z,44.40
2019-03-23T04:04:44.279Z,45.05
2019-03-23T04:07:12.653Z,45.57
2019-03-23T04:09:41.042Z,44.43
2019-03-23T04:12:09.407Z,37.73
2019-03-23T04:14:37.841Z,39.75
2019-03-23T04:17:06.207Z,35.43
2019-03-23T04:19:34.575Z,37.53
2019-03-23T04:22:03.035Z,32.90
2019-03-23T04:24:31.398Z,39.25
2019-03-23T04:27:01.429Z,35.73
2019-03-23T04:29:29.939Z,41.37
2019-03-23T04:31:58.322Z,39.08
2019-03-23T04:34:26.706Z,34.23
2019-03-23T04:36:55.157Z,38.42
2019-03-23T04:39:23.527Z,42.25
2019-03-23T04:41:51.889Z,41.57
2019-03-23T04:44:20.399Z,47.62
2019-03-23T04:46:48.739Z,52.70
2019-03-23T04:49:17.103Z,46.70
2019-03-23T04:51:45.497Z,52.17
2019-03-23T04:54:13.862Z,45.40
2019-03-23T04:56:42.249Z,52.20
2019-03-23T04:59:10.656Z,46.75
2019-03-23T05:01:39.030Z,57.40
2019-03-23T05:04:07.442Z,55.00
2019-03-23T05:06:35.804Z,62.30
2019-03-23T05:09:05.714Z,55.30
2019-03-23T05:11:34.113Z,60.67
2019-03-23T05:14:02.506Z,56.55
2019-03-23T05:16:30.916Z,56.63
2019-03-23T05:18:59.280Z,52.23
2019-03-23T05:21:27.608Z,56.07
2019-03-23T05:23:55.976Z,55.65
2019-03-23T05:26:24.924Z,57.17
2019-03-23T05:28:53.324Z,52.90
2019-03-23T05:31:21.689Z,49.33
2019-03-23T05:33:50.086Z,50.10
2019-03-23T05:36:18.533Z,53.30
2019-03-23T05:38:46.913Z,43.30
2019-03-23T05:41:15.298Z,46.23
2019-03-23T05:43:43.747Z,45.08
2019-03-23T05:46:12.189Z,54.08
2019-03-23T05:48:40.556Z,41.95
2019-03-23T05:51:08.945Z,39.95
2019-03-23T05:53:37.361Z,41.92
2019-03-23T05:56:05.675Z,45.23
2019-03-23T05:58:34.057Z,43.65
2019-03-23T06:01:02.433Z,35.10
2019-03-23T06:03:30.864Z,35.28
2019-03-23T06:05:59.946Z,37.50
2019-03-23T06:08:28.326Z,35.80
2019-03-23T06:10:56.703Z,39.70
2019-03-23T06:13:25.164Z,37.47
2019-03-23T06:15:53.526Z,30.17
2019-03-23T06:18:21.838Z,33.07
2019-03-23T06:20:50.302Z,31.97
2019-03-23T06:23:18.716Z,29.82
2019-03-23T06:25:47.015Z,29.40
2019-03-23T06:28:15.403Z,30.25
2019-03-23T06:30:43.789Z,26.02
2019-03-23T06:33:12.156Z,22.23
2019-03-23T06:35:40.625Z,24.23
2019-03-23T06:38:09.082Z,22.40
2019-03-23T06:40:37.457Z,17.07
2019-03-23T06:43:05.861Z,27.90
2019-03-23T06:45:35.161Z,24.75
2019-03-23T06:48:03.556Z,24.90
2019-03-23T06:50:31.935Z,22.07
2019-03-23T06:53:00.333Z,24.47
2019-03-23T06:55:28.733Z,27.80
2019-03-23T06:57:57.030Z,26.85
2019-03-23T07:00:25.455Z,25.60
2019-03-23T07:02:53.922Z,26.65
2019-03-23T07:05:22.359Z,21.55
2019-03-23T07:07:50.754Z,24.63
2019-03-23T07:10:19.190Z,27.37
2019-03-23T07:12:47.606Z,28.27
2019-03-23T07:15:20.254Z,23.50
2019-03-23T07:17:46.032Z,22.02
2019-03-23T07:20:14.777Z,23.10
2019-03-23T07:22:43.154Z,23.67
2019-03-23T07:25:11.769Z,22.40
2019-03-23T07:27:40.133Z,22.10
2019-03-23T07:30:19.119Z,19.65
2019-03-23T07:32:47.477Z,21.68
2019-03-23T07:35:15.849Z,21.82
2019-03-23T07:37:44.241Z,21.55
2019-03-23T07:40:12.781Z,22.02
2019-03-23T07:42:41.240Z,17.07
2019-03-23T07:45:11.166Z,17.15
2019-03-23T07:47:39.533Z,19.93
2019-03-23T07:50:09.488Z,17.82
2019-03-23T07:52:38.133Z,16.85
2019-03-23T07:55:13.545Z,15.32
2019-03-23T07:57:42.158Z,14.88
2019-03-23T08:00:12.787Z,17.82
2019-03-23T08:02:41.152Z,15.57
2019-03-23T08:05:09.554Z,12.58
2019-03-23T08:07:37.940Z,16.35
2019-03-23T08:10:06.984Z,17.32
2019-03-23T08:12:35.396Z,16.25
2019-03-23T08:15:07.477Z,14.80
2019-03-23T08:17:35.806Z,13.05
2019-03-23T08:20:06.710Z,12.46
2019-03-23T08:22:35.147Z,11.18
2019-03-23T08:25:04.664Z,15.85
2019-03-23T08:27:33.033Z,17.27
2019-03-23T08:30:01.413Z,16.80
2019-03-23T08:32:29.797Z,14.73
2019-03-23T08:34:58.194Z,18.60
2019-03-23T08:37:26.609Z,17.67
2019-03-23T08:39:54.920Z,13.95
2019-03-23T08:42:23.997Z,19.40
2019-03-23T08:44:52.317Z,16.27
2019-03-23T08:47:20.642Z,13.32
2019-03-23T08:49:49.110Z,16.60
2019-03-23T08:52:17.470Z,14.40
2019-03-23T08:54:45.858Z,16.60
2019-03-23T08:57:14.242Z,16.32
2019-03-23T08:59:42.634Z,13.88
2019-03-23T09:02:10.999Z,14.03
2019-03-23T09:04:39.385Z,23.12
2019-03-23T09:07:07.813Z,18.10
2019-03-23T09:09:36.239Z,9.60
2019-03-23T09:12:04.609Z,13.87
2019-03-23T09:14:32.921Z,20.50
2019-03-23T09:17:01.269Z,18.63
2019-03-23T09:19:29.643Z,17.37
2019-03-23T09:21:58.099Z,12.00
2019-03-23T09:24:26.477Z,19.50
2019-03-23T09:26:54.778Z,17.07
2019-03-23T09:29:23.389Z,14.70
2019-03-23T09:31:51.754Z,18.00
2019-03-23T09:34:20.211Z,14.93
2019-03-23T09:36:48.678Z,18.45
2019-03-23T09:39:17.074Z,15.90
2019-03-23T09:41:45.513Z,20.97
2019-03-23T09:44:13.806Z,14.47
2019-03-23T09:46:42.118Z,17.37
2019-03-23T09:49:10.482Z,14.05
2019-03-23T09:51:38.788Z,10.68
2019-03-23T09:54:07.087Z,17.05
2019-03-23T09:56:35.456Z,14.87
2019-03-23T09:59:03.829Z,13.32
2019-03-23T10:01:32.147Z,9.50
2019-03-23T10:04:00.544Z,14.38
2019-03-23T10:06:28.932Z,14.67
2019-03-23T10:08:57.341Z,14.60
2019-03-23T10:11:25.699Z,10.82
2019-03-23T10:13:54.109Z,11.93
2019-03-23T10:16:22.561Z,8.90
2019-03-23T10:18:50.979Z,13.08
2019-03-23T10:21:19.360Z,9.55
2019-03-23T10:23:47.721Z,11.08
2019-03-23T10:26:16.113Z,14.10
2019-03-23T10:28:44.498Z,10.85
2019-03-23T10:31:12.867Z,15.13
2019-03-23T10:33:42.544Z,9.95
2019-03-23T10:36:12.292Z,7.93
2019-03-23T10:38:40.789Z,11.80
2019-03-23T10:41:10.188Z,9.17
2019-03-23T10:43:39.101Z,6.65
2019-03-23T10:46:07.550Z,10.48
2019-03-23T10:48:35.982Z,6.60
2019-03-23T10:51:04.398Z,7.05
2019-03-23T10:53:32.694Z,6.20
2019-03-23T10:56:01.081Z,8.83
2019-03-23T10:58:29.466Z,6.22
2019-03-23T11:00:57.905Z,9.40
2019-03-23T11:03:26.537Z,12.43
2019-03-23T11:05:54.851Z,4.35
2019-03-23T11:08:23.389Z,9.35
2019-03-23T11:10:51.696Z,9.87
2019-03-23T11:13:20.101Z,5.87
2019-03-23T11:15:48.401Z,7.33
2019-03-23T11:18:16.813Z,8.75
2019-03-23T11:20:45.991Z,2.95
2019-03-23T11:23:16.009Z,7.75
2019-03-23T11:25:44.383Z,7.80
2019-03-23T11:28:12.773Z,6.08
2019-03-23T11:30:41.112Z,9.48
2019-03-23T11:33:09.468Z,3.93
2019-03-23T11:35:37.832Z,7.42
2019-03-23T11:38:06.840Z,3.53
2019-03-23T11:40:35.207Z,5.60
2019-03-23T11:43:03.586Z,6.03
2019-03-23T11:45:31.892Z,11.25
2019-03-23T11:48:00.195Z,6.92
2019-03-23T11:50:28.606Z,6.17
2019-03-23T11:52:57.068Z,6.92
2019-03-23T11:55:25.446Z,5.92
2019-03-23T11:57:53.884Z,5.15
2019-03-23T12:00:23.113Z,10.43
2019-03-23T12:02:51.519Z,7.62
2019-03-23T12:05:19.965Z,10.63
2019-03-23T12:07:48.363Z,7.83
2019-03-23T12:10:16.729Z,5.60
2019-03-23T12:12:45.120Z,7.57
2019-03-23T12:15:13.510Z,7.25
2019-03-23T12:17:41.909Z,13.88
2019-03-23T12:20:10.617Z,9.23
2019-03-23T12:22:39.055Z,9.60
2019-03-23T12:25:07.387Z,8.63
2019-03-23T12:27:35.775Z,9.48
2019-03-23T12:30:07.636Z,8.88
2019-03-23T12:32:36.091Z,10.50
2019-03-23T12:35:07.099Z,5.75
2019-03-23T12:37:35.560Z,5.20
2019-03-23T12:40:05.766Z,8.48
2019-03-23T12:42:34.138Z,5.30
2019-03-23T12:45:03.470Z,2.00
2019-03-23T12:47:31.858Z,8.23
2019-03-23T12:50:00.338Z,9.07
2019-03-23T12:52:28.722Z,4.95
2019-03-23T12:54:59.234Z,6.30
2019-03-23T12:57:27.592Z,3.30
2019-03-23T12:59:56.161Z,3.13
2019-03-23T13:02:24.591Z,3.93
2019-03-23T13:04:52.945Z,7.22
2019-03-23T13:07:22.159Z,3.64
2019-03-23T13:09:50.481Z,4.92
2019-03-23T13:12:20.669Z,6.22
2019-03-23T13:14:48.968Z,9.43
2019-03-23T13:17:17.330Z,5.65
2019-03-23T13:19:45.769Z,9.03
2019-03-23T13:22:14.119Z,4.47
2019-03-23T13:24:42.481Z,7.03
2019-03-23T13:27:10.854Z,7.60
2019-03-23T13:29:39.218Z,6.25
2019-03-23T13:32:07.594Z,5.75
2019-03-23T13:34:36.018Z,7.25
2019-03-23T13:37:04.312Z,6.97
2019-03-23T13:39:32.687Z,6.87
2019-03-23T13:42:01.132Z,8.85
2019-03-23T13:44:29.497Z,5.10
2019-03-23T13:46:58.037Z,7.03
2019-03-23T13:49:26.494Z,3.10
2019-03-23T13:51:54.865Z,11.33
2019-03-23T13:54:23.183Z,9.53
2019-03-23T13:56:51.553Z,8.08
2019-03-23T13:59:19.879Z,6.58
2019-03-23T14:01:48.265Z,8.33
2019-03-23T14:04:16.655Z,7.40
2019-03-23T14:06:45.061Z,5.72
2019-03-23T14:09:13.429Z,8.30
2019-03-23T14:11:41.845Z,7.97
2019-03-23T14:14:10.212Z,9.47
2019-03-23T14:16:38.577Z,10.60
2019-03-23T14:19:06.966Z,8.43
2019-03-23T14:21:35.329Z,9.20
2019-03-23T14:24:03.659Z,9.90
2019-03-23T14:26:32.055Z,7.90
2019-03-23T14:29:00.442Z,7.97
2019-03-23T14:31:28.740Z,8.45
2019-03-23T14:33:57.200Z,10.67
2019-03-23T14:36:25.598Z,12.15
2019-03-23T14:38:53.958Z,8.97
2019-03-23T14:41:22.340Z,11.05
2019-03-23T14:43:51.086Z,9.38
2019-03-23T14:46:19.387Z,9.25
2019-03-23T14:48:47.749Z,11.70
2019-03-23T14:51:16.143Z,10.73
2019-03-23T14:53:44.528Z,6.90
2019-03-23T14:56:12.894Z,10.48
2019-03-23T14:58:41.350Z,10.95
2019-03-23T15:01:09.956Z,10.50
2019-03-23T15:03:38.306Z,10.35
2019-03-23T15:06:06.841Z,11.43
2019-03-23T15:08:35.219Z,12.30
2019-03-23T15:11:03.623Z,8.30
2019-03-23T15:13:32.105Z,9.08
2019-03-23T15:16:00.409Z,9.00
2019-03-23T15:18:28.985Z,14.13
2019-03-23T15:20:57.393Z,11.18
2019-03-23T15:23:25.875Z,10.72
2019-03-23T15:25:54.286Z,17.23
2019-03-23T15:28:22.690Z,13.72
2019-03-23T15:30:53.008Z,11.60
2019-03-23T15:33:21.278Z,11.55
2019-03-23T15:35:49.718Z,10.63
2019-03-23T15:38:18.110Z,7.53
2019-03-23T15:40:47.084Z,9.38
2019-03-23T15:43:15.377Z,12.43
2019-03-23T15:45:43.847Z,9.70
2019-03-23T15:48:12.229Z,13.98
2019-03-23T15:50:40.658Z,14.50
2019-03-23T15:53:09.001Z,8.23
2019-03-23T15:55:37.386Z,12.23
2019-03-23T15:58:05.809Z,6.72
2019-03-23T16:00:34.193Z,9.95
2019-03-23T16:03:03.064Z,14.80
2019-03-23T16:05:31.465Z,14.23
2019-03-23T16:07:59.858Z,8.95
2019-03-23T16:10:30.016Z,11.75
2019-03-23T16:12:58.436Z,13.03
2019-03-23T16:15:26.819Z,15.63
2019-03-23T16:17:56.445Z,16.12
2019-03-23T16:20:24.637Z,20.05
2019-03-23T16:22:52.872Z,14.50
2019-03-23T16:25:21.740Z,16.65
2019-03-23T16:27:49.945Z,16.12
2019-03-23T16:30:19.806Z,14.33
2019-03-23T16:32:47.930Z,17.30
2019-03-23T16:35:16.391Z,19.00
2019-03-23T16:37:44.761Z,12.23
2019-03-23T16:40:13.168Z,20.00
2019-03-23T16:42:45.492Z,20.23
2019-03-23T16:45:12.256Z,17.37
2019-03-23T16:47:40.675Z,15.93
2019-03-23T16:50:08.849Z,16.50
2019-03-23T16:52:37.973Z,12.98
2019-03-23T16:55:10.345Z,17.80
2019-03-23T16:57:38.630Z,20.45
2019-03-23T17:00:10.859Z,15.08
2019-03-23T17:02:39.042Z,20.70
2019-03-23T17:05:07.327Z,18.00
2019-03-23T17:07:35.448Z,15.38
2019-03-23T17:10:05.038Z,20.15
2019-03-23T17:12:33.374Z,15.03
2019-03-23T17:15:01.502Z,10.43
2019-03-23T17:17:29.680Z,17.37
2019-03-23T17:19:57.814Z,22.10
2019-03-23T17:22:26.005Z,18.73
2019-03-23T17:24:54.196Z,12.33
2019-03-23T17:27:22.323Z,19.40
2019-03-23T17:29:50.706Z,15.28
2019-03-23T17:32:18.847Z,17.00
2019-03-23T17:34:47.037Z,15.65
2019-03-23T17:37:15.243Z,14.05
2019-03-23T17:39:43.473Z,13.00
2019-03-23T17:42:11.712Z,18.87
2019-03-23T17:44:39.917Z,17.10
2019-03-23T17:47:08.089Z,24.95
2019-03-23T17:49:36.469Z,36.65
2019-03-23T17:52:05.584Z,16.77
2019-03-23T17:54:33.869Z,16.70
2019-03-23T17:57:01.934Z,16.02
2019-03-23T17:59:30.166Z,19.90
2019-03-23T18:01:58.418Z,17.45
2019-03-23T18:04:26.628Z,16.40
2019-03-23T18:06:55.626Z,24.95
2019-03-23T18:09:23.882Z,13.50
2019-03-23T18:11:52.104Z,26.65
2019-03-23T18:14:20.290Z,17.23
2019-03-23T18:16:48.446Z,16.35
2019-03-23T18:19:16.575Z,16.73
2019-03-23T18:21:44.786Z,17.55
2019-03-23T18:24:12.985Z,19.92
2019-03-23T18:26:41.207Z,15.45
2019-03-23T18:29:09.401Z,19.67
2019-03-23T18:31:37.607Z,13.70
2019-03-23T18:34:05.813Z,15.93
2019-03-23T18:36:34.205Z,15.07
2019-03-23T18:39:02.550Z,15.90
2019-03-23T18:41:30.765Z,22.10
2019-03-23T18:43:58.930Z,17.23
2019-03-23T18:46:27.129Z,25.50
2019-03-23T18:48:55.555Z,17.70
2019-03-23T18:51:23.862Z,23.30
2019-03-23T18:53:51.998Z,23.35
2019-03-23T18:56:20.208Z,20.60
2019-03-23T18:58:48.573Z,18.00
2019-03-23T19:01:16.793Z,21.37
2019-03-23T19:03:44.907Z,17.20
2019-03-23T19:06:13.146Z,18.12
2019-03-23T19:08:41.335Z,16.80
2019-03-23T19:11:09.623Z,24.43
2019-03-23T19:13:38.341Z,22.37
2019-03-23T19:16:06.544Z,20.37
2019-03-23T19:18:34.961Z,27.85
2019-03-23T19:21:03.965Z,21.62
2019-03-23T19:23:34.402Z,17.80
2019-03-23T19:26:02.091Z,17.35
2019-03-23T19:28:30.296Z,23.73
2019-03-23T19:30:58.477Z,25.00
2019-03-23T19:33:26.685Z,26.97
2019-03-23T19:35:54.885Z,23.70
2019-03-23T19:38:23.034Z,20.30
2019-03-23T19:40:51.213Z,23.00
2019-03-23T19:43:19.274Z,20.35
2019-03-23T19:45:47.473Z,26.73
2019-03-23T19:48:15.963Z,25.92
2019-03-23T19:50:44.158Z,24.77
2019-03-23T19:53:12.356Z,30.55
2019-03-23T19:55:40.503Z,21.95
2019-03-23T19:58:08.726Z,31.20
2019-03-23T20:00:36.985Z,38.05
2019-03-23T20:03:05.420Z,20.43
2019-03-23T20:05:33.602Z,37.20
2019-03-23T20:08:01.891Z,27.77
2019-03-23T20:10:30.087Z,28.47
2019-03-23T20:12:58.309Z,29.67
2019-03-23T20:15:26.419Z,31.87
2019-03-23T20:17:54.612Z,29.75
2019-03-23T20:20:22.763Z,23.57
2019-03-23T20:22:50.989Z,30.17
2019-03-23T20:25:19.197Z,33.83
2019-03-23T20:27:47.329Z,33.53
2019-03-23T20:30:15.585Z,33.20
2019-03-23T20:32:43.827Z,26.42
2019-03-23T20:35:12.518Z,24.54
2019-03-23T20:37:40.796Z,26.95
2019-03-23T20:40:08.986Z,34.85
2019-03-23T20:42:37.196Z,33.98
2019-03-23T20:45:06.982Z,24.97
2019-03-23T20:47:35.207Z,33.17
2019-03-23T20:50:03.430Z,30.62
2019-03-23T20:52:31.621Z,25.40
2019-03-23T20:54:59.832Z,28.15
2019-03-23T20:57:36.997Z,35.25
2019-03-23T20:59:58.247Z,15.13
2019-03-23T21:02:26.532Z,27.90
2019-03-23T21:04:54.737Z,32.42
2019-03-23T21:07:22.928Z,31.95
2019-03-23T21:09:51.201Z,33.23
2019-03-23T21:12:19.324Z,32.28
2019-03-23T21:14:47.781Z,37.08
2019-03-23T21:17:15.983Z,28.65
2019-03-23T21:19:44.170Z,27.02
2019-03-23T21:22:12.382Z,38.87
2019-03-23T21:24:40.585Z,27.30
2019-03-23T21:27:08.825Z,31.15
2019-03-23T21:29:37.306Z,29.60
2019-03-23T21:32:05.834Z,32.85
2019-03-23T21:34:34.018Z,39.80
2019-03-23T21:37:02.223Z,30.37
2019-03-23T21:39:30.415Z,36.07
2019-03-23T21:41:58.543Z,31.60
2019-03-23T21:44:30.838Z,27.07
2019-03-23T21:46:56.689Z,32.50
2019-03-23T21:49:24.944Z,35.50
2019-03-23T21:51:53.136Z,31.45
2019-03-23T21:54:21.430Z,26.77
2019-03-23T21:56:49.675Z,34.90
2019-03-23T21:59:18.024Z,28.30
2019-03-23T22:01:46.154Z,28.35
2019-03-23T22:04:14.287Z,29.60
2019-03-23T22:06:42.497Z,33.45
2019-03-23T22:09:10.702Z,31.50
2019-03-23T22:11:39.036Z,26.32
2019-03-23T22:14:07.175Z,26.12
2019-03-23T22:16:35.358Z,29.60
2019-03-23T22:19:03.579Z,29.95
2019-03-23T22:21:31.937Z,25.02
2019-03-23T22:24:00.329Z,30.83
2019-03-23T22:26:28.535Z,17.75
2019-03-23T22:28:56.838Z,23.70
2019-03-23T22:31:25.231Z,28.73
2019-03-23T22:33:53.454Z,30.32
2019-03-23T22:36:21.661Z,33.35
2019-03-23T22:38:50.029Z,32.00
2019-03-23T22:41:18.237Z,27.42
2019-03-23T22:43:46.415Z,23.23
2019-03-23T22:46:14.562Z,30.43
2019-03-23T22:48:42.711Z,27.10
2019-03-23T22:51:10.915Z,27.02
2019-03-23T22:53:39.132Z,28.10
2019-03-23T22:56:07.535Z,23.60
2019-03-23T22:58:35.734Z,28.67
2019-03-23T23:01:04.226Z,31.68
2019-03-23T23:03:32.600Z,33.88
2019-03-23T23:06:00.992Z,26.62
2019-03-23T23:08:29.922Z,29.98
2019-03-23T23:10:58.107Z,28.05
2019-03-23T23:13:26.337Z,31.20
2019-03-23T23:15:54.636Z,24.45
2019-03-23T23:18:22.780Z,23.90
2019-03-23T23:20:50.989Z,33.98
2019-03-23T23:23:19.099Z,28.65
2019-03-23T23:25:47.305Z,19.93
2019-03-23T23:28:15.509Z,28.77
2019-03-23T23:30:43.711Z,22.75
2019-03-23T23:33:12.177Z,23.42
2019-03-23T23:35:40.487Z,21.62
2019-03-23T23:38:09.150Z,30.25
2019-03-23T23:40:37.534Z,24.25
2019-03-23T23:43:05.663Z,31.75
2019-03-23T23:45:34.055Z,18.32
2019-03-23T23:48:03.174Z,22.20
2019-03-23T23:50:31.395Z,24.18
2019-03-23T23:52:59.793Z,28.42
2019-03-23T23:55:28.186Z,30.27
2019-03-23T23:57:56.600Z,25.92
